sensor_id;sensor_type;location;lat;lon;timestamp;P1;durP1;ratioP1;P2;durP2;ratioP2
52898;SDS011;38763;53.096;6.062;2022-08-24T00:01:12;21.00;;;14.20;;
52898;SDS011;38763;53.096;6.062;2022-08-24T00:03:40;23.05;;;13.93;;
52898;SDS011;38763;53.096;6.062;2022-08-24T00:06:07;19.40;;;13.15;;
52898;SDS011;38763;53.096;6.062;2022-08-24T00:08:35;22.73;;;13.75;;
52898;SDS011;38763;53.096;6.062;2022-08-24T00:11:02;21.77;;;14.57;;
52898;SDS011;38763;53.096;6.062;2022-08-24T00:13:28;21.30;;;14.63;;
52898;SDS011;38763;53.096;6.062;2022-08-24T00:15:54;21.98;;;14.07;;
52898;SDS011;38763;53.096;6.062;2022-08-24T00:18:20;21.63;;;13.55;;
52898;SDS011;38763;53.096;6.062;2022-08-24T00:20:46;21.60;;;14.05;;
52898;SDS011;38763;53.096;6.062;2022-08-24T00:23:12;23.77;;;14.73;;
52898;SDS011;38763;53.096;6.062;2022-08-24T00:25:38;20.08;;;14.55;;
52898;SDS011;38763;53.096;6.062;2022-08-24T00:28:04;25.45;;;15.15;;
52898;SDS011;38763;53.096;6.062;2022-08-24T00:30:30;23.70;;;14.13;;
52898;SDS011;38763;53.096;6.062;2022-08-24T00:32:57;21.90;;;13.80;;
52898;SDS011;38763;53.096;6.062;2022-08-24T00:35:22;20.38;;;14.63;;
52898;SDS011;38763;53.096;6.062;2022-08-24T00:37:49;21.52;;;14.73;;
52898;SDS011;38763;53.096;6.062;2022-08-24T00:40:22;19.17;;;13.93;;
52898;SDS011;38763;53.096;6.062;2022-08-24T00:42:50;19.23;;;13.75;;
52898;SDS011;38763;53.096;6.062;2022-08-24T00:45:17;22.45;;;14.02;;
52898;SDS011;38763;53.096;6.062;2022-08-24T00:50:11;21.77;;;13.82;;
52898;SDS011;38763;53.096;6.062;2022-08-24T00:52:44;20.70;;;13.55;;
52898;SDS011;38763;53.096;6.062;2022-08-24T00:55:18;18.27;;;13.60;;
52898;SDS011;38763;53.096;6.062;2022-08-24T00:57:48;24.10;;;13.93;;
52898;SDS011;38763;53.096;6.062;2022-08-24T01:00:25;20.38;;;14.30;;
52898;SDS011;38763;53.096;6.062;2022-08-24T01:02:54;20.35;;;14.07;;
52898;SDS011;38763;53.096;6.062;2022-08-24T01:05:28;20.05;;;14.68;;
52898;SDS011;38763;53.096;6.062;2022-08-24T01:07:58;20.92;;;15.18;;
52898;SDS011;38763;53.096;6.062;2022-08-24T01:10:26;24.65;;;14.90;;
52898;SDS011;38763;53.096;6.062;2022-08-24T01:12:55;23.35;;;15.18;;
52898;SDS011;38763;53.096;6.062;2022-08-24T01:15:22;24.42;;;16.58;;
52898;SDS011;38763;53.096;6.062;2022-08-24T01:17:48;21.30;;;14.65;;
52898;SDS011;38763;53.096;6.062;2022-08-24T01:20:33;23.25;;;15.73;;
52898;SDS011;38763;53.096;6.062;2022-08-24T01:25:52;21.60;;;14.57;;
52898;SDS011;38763;53.096;6.062;2022-08-24T01:28:18;23.10;;;15.85;;
52898;SDS011;38763;53.096;6.062;2022-08-24T01:30:45;24.88;;;16.20;;
52898;SDS011;38763;53.096;6.062;2022-08-24T01:33:20;21.98;;;15.35;;
52898;SDS011;38763;53.096;6.062;2022-08-24T01:35:48;26.88;;;19.10;;
52898;SDS011;38763;53.096;6.062;2022-08-24T01:38:14;26.73;;;18.63;;
52898;SDS011;38763;53.096;6.062;2022-08-24T01:40:43;27.75;;;19.23;;
52898;SDS011;38763;53.096;6.062;2022-08-24T01:43:12;25.88;;;19.13;;
52898;SDS011;38763;53.096;6.062;2022-08-24T01:45:39;26.50;;;19.60;;
52898;SDS011;38763;53.096;6.062;2022-08-24T01:48:05;31.20;;;19.92;;
52898;SDS011;38763;53.096;6.062;2022-08-24T01:50:31;24.77;;;18.50;;
52898;SDS011;38763;53.096;6.062;2022-08-24T01:52:58;26.65;;;18.42;;
52898;SDS011;38763;53.096;6.062;2022-08-24T01:55:27;25.70;;;17.67;;
52898;SDS011;38763;53.096;6.062;2022-08-24T01:57:53;25.48;;;17.63;;
52898;SDS011;38763;53.096;6.062;2022-08-24T02:00:19;26.13;;;16.88;;
52898;SDS011;38763;53.096;6.062;2022-08-24T02:02:45;23.77;;;17.38;;
52898;SDS011;38763;53.096;6.062;2022-08-24T02:05:11;27.55;;;18.33;;
52898;SDS011;38763;53.096;6.062;2022-08-24T02:07:38;26.45;;;17.88;;
52898;SDS011;38763;53.096;6.062;2022-08-24T02:10:05;25.95;;;17.95;;
52898;SDS011;38763;53.096;6.062;2022-08-24T02:12:35;27.92;;;19.00;;
52898;SDS011;38763;53.096;6.062;2022-08-24T02:15:05;27.88;;;18.98;;
52898;SDS011;38763;53.096;6.062;2022-08-24T02:17:32;24.38;;;16.83;;
52898;SDS011;38763;53.096;6.062;2022-08-24T02:20:00;27.05;;;18.30;;
52898;SDS011;38763;53.096;6.062;2022-08-24T02:22:27;24.98;;;17.33;;
52898;SDS011;38763;53.096;6.062;2022-08-24T02:24:53;26.02;;;18.50;;
52898;SDS011;38763;53.096;6.062;2022-08-24T02:27:19;25.10;;;18.90;;
52898;SDS011;38763;53.096;6.062;2022-08-24T02:29:44;23.95;;;18.02;;
52898;SDS011;38763;53.096;6.062;2022-08-24T02:32:10;27.50;;;18.33;;
52898;SDS011;38763;53.096;6.062;2022-08-24T02:34:37;23.45;;;16.40;;
52898;SDS011;38763;53.096;6.062;2022-08-24T02:37:03;24.42;;;17.55;;
52898;SDS011;38763;53.096;6.062;2022-08-24T02:39:29;25.05;;;17.88;;
52898;SDS011;38763;53.096;6.062;2022-08-24T02:41:55;27.48;;;18.02;;
52898;SDS011;38763;53.096;6.062;2022-08-24T02:44:21;22.30;;;17.23;;
52898;SDS011;38763;53.096;6.062;2022-08-24T02:46:46;25.73;;;17.30;;
52898;SDS011;38763;53.096;6.062;2022-08-24T02:49:12;26.15;;;17.88;;
52898;SDS011;38763;53.096;6.062;2022-08-24T02:51:41;26.45;;;19.50;;
52898;SDS011;38763;53.096;6.062;2022-08-24T02:54:08;25.88;;;18.52;;
52898;SDS011;38763;53.096;6.062;2022-08-24T02:56:34;28.33;;;18.98;;
52898;SDS011;38763;53.096;6.062;2022-08-24T02:59:00;29.60;;;20.08;;
52898;SDS011;38763;53.096;6.062;2022-08-24T03:01:26;25.92;;;19.00;;
52898;SDS011;38763;53.096;6.062;2022-08-24T03:03:53;28.27;;;19.00;;
52898;SDS011;38763;53.096;6.062;2022-08-24T03:06:19;26.83;;;20.17;;
52898;SDS011;38763;53.096;6.062;2022-08-24T03:08:45;24.55;;;18.25;;
52898;SDS011;38763;53.096;6.062;2022-08-24T03:11:11;28.25;;;19.83;;
52898;SDS011;38763;53.096;6.062;2022-08-24T03:13:37;27.25;;;18.98;;
52898;SDS011;38763;53.096;6.062;2022-08-24T03:16:04;26.20;;;18.92;;
52898;SDS011;38763;53.096;6.062;2022-08-24T03:18:31;26.63;;;19.05;;
52898;SDS011;38763;53.096;6.062;2022-08-24T03:20:57;26.70;;;18.25;;
52898;SDS011;38763;53.096;6.062;2022-08-24T03:23:24;27.05;;;19.10;;
52898;SDS011;38763;53.096;6.062;2022-08-24T03:25:51;29.95;;;20.50;;
52898;SDS011;38763;53.096;6.062;2022-08-24T03:28:19;31.90;;;20.60;;
52898;SDS011;38763;53.096;6.062;2022-08-24T03:30:48;27.20;;;19.83;;
52898;SDS011;38763;53.096;6.062;2022-08-24T03:33:14;26.70;;;19.10;;
52898;SDS011;38763;53.096;6.062;2022-08-24T03:35:40;27.08;;;19.50;;
52898;SDS011;38763;53.096;6.062;2022-08-24T03:38:06;29.33;;;19.13;;
52898;SDS011;38763;53.096;6.062;2022-08-24T03:40:31;27.35;;;17.83;;
52898;SDS011;38763;53.096;6.062;2022-08-24T03:42:58;25.48;;;18.63;;
52898;SDS011;38763;53.096;6.062;2022-08-24T03:45:25;23.95;;;17.25;;
52898;SDS011;38763;53.096;6.062;2022-08-24T03:47:52;26.33;;;19.10;;
52898;SDS011;38763;53.096;6.062;2022-08-24T03:50:18;26.77;;;19.40;;
52898;SDS011;38763;53.096;6.062;2022-08-24T03:52:45;28.65;;;19.08;;
52898;SDS011;38763;53.096;6.062;2022-08-24T03:55:11;28.65;;;19.88;;
52898;SDS011;38763;53.096;6.062;2022-08-24T03:57:37;29.27;;;20.48;;
52898;SDS011;38763;53.096;6.062;2022-08-24T04:00:04;27.70;;;18.92;;
52898;SDS011;38763;53.096;6.062;2022-08-24T04:02:32;30.05;;;18.77;;
52898;SDS011;38763;53.096;6.062;2022-08-24T04:04:58;27.13;;;18.90;;
52898;SDS011;38763;53.096;6.062;2022-08-24T04:07:23;27.90;;;18.25;;
52898;SDS011;38763;53.096;6.062;2022-08-24T04:09:49;26.85;;;18.77;;
52898;SDS011;38763;53.096;6.062;2022-08-24T04:12:15;27.00;;;19.23;;
52898;SDS011;38763;53.096;6.062;2022-08-24T04:14:40;32.67;;;20.83;;
52898;SDS011;38763;53.096;6.062;2022-08-24T04:17:06;27.15;;;20.45;;
52898;SDS011;38763;53.096;6.062;2022-08-24T04:19:32;28.83;;;20.52;;
52898;SDS011;38763;53.096;6.062;2022-08-24T04:21:58;25.88;;;18.30;;
52898;SDS011;38763;53.096;6.062;2022-08-24T04:24:25;25.50;;;18.73;;
52898;SDS011;38763;53.096;6.062;2022-08-24T04:26:51;25.23;;;18.70;;
52898;SDS011;38763;53.096;6.062;2022-08-24T04:29:17;29.50;;;19.63;;
52898;SDS011;38763;53.096;6.062;2022-08-24T04:31:44;27.35;;;19.80;;
52898;SDS011;38763;53.096;6.062;2022-08-24T04:34:12;25.35;;;19.48;;
52898;SDS011;38763;53.096;6.062;2022-08-24T04:36:39;35.28;;;22.83;;
52898;SDS011;38763;53.096;6.062;2022-08-24T04:39:06;31.65;;;21.88;;
52898;SDS011;38763;53.096;6.062;2022-08-24T04:41:32;30.90;;;22.35;;
52898;SDS011;38763;53.096;6.062;2022-08-24T04:43:58;30.42;;;21.17;;
52898;SDS011;38763;53.096;6.062;2022-08-24T04:46:24;31.17;;;21.48;;
52898;SDS011;38763;53.096;6.062;2022-08-24T04:48:50;32.45;;;22.90;;
52898;SDS011;38763;53.096;6.062;2022-08-24T04:51:17;31.30;;;22.17;;
52898;SDS011;38763;53.096;6.062;2022-08-24T04:53:44;33.22;;;23.75;;
52898;SDS011;38763;53.096;6.062;2022-08-24T04:56:12;36.40;;;24.20;;
52898;SDS011;38763;53.096;6.062;2022-08-24T04:58:39;38.88;;;24.27;;
52898;SDS011;38763;53.096;6.062;2022-08-24T05:01:06;36.58;;;25.45;;
52898;SDS011;38763;53.096;6.062;2022-08-24T05:03:44;39.03;;;26.77;;
52898;SDS011;38763;53.096;6.062;2022-08-24T05:06:12;36.88;;;25.90;;
52898;SDS011;38763;53.096;6.062;2022-08-24T05:08:39;40.05;;;27.70;;
52898;SDS011;38763;53.096;6.062;2022-08-24T05:11:05;41.25;;;28.92;;
52898;SDS011;38763;53.096;6.062;2022-08-24T05:13:32;45.83;;;30.50;;
52898;SDS011;38763;53.096;6.062;2022-08-24T05:16:05;39.85;;;28.13;;
52898;SDS011;38763;53.096;6.062;2022-08-24T05:18:31;43.92;;;28.42;;
52898;SDS011;38763;53.096;6.062;2022-08-24T05:20:57;40.30;;;28.75;;
52898;SDS011;38763;53.096;6.062;2022-08-24T05:23:24;45.15;;;28.98;;
52898;SDS011;38763;53.096;6.062;2022-08-24T05:25:50;41.33;;;28.05;;
52898;SDS011;38763;53.096;6.062;2022-08-24T05:28:16;40.08;;;27.05;;
52898;SDS011;38763;53.096;6.062;2022-08-24T05:30:41;38.92;;;25.88;;
52898;SDS011;38763;53.096;6.062;2022-08-24T05:33:07;38.38;;;26.42;;
52898;SDS011;38763;53.096;6.062;2022-08-24T05:35:36;37.72;;;26.40;;
52898;SDS011;38763;53.096;6.062;2022-08-24T05:38:03;38.80;;;27.60;;
52898;SDS011;38763;53.096;6.062;2022-08-24T05:40:29;44.88;;;29.48;;
52898;SDS011;38763;53.096;6.062;2022-08-24T05:42:55;44.20;;;29.45;;
52898;SDS011;38763;53.096;6.062;2022-08-24T05:45:21;44.28;;;28.27;;
52898;SDS011;38763;53.096;6.062;2022-08-24T05:47:46;41.42;;;29.10;;
52898;SDS011;38763;53.096;6.062;2022-08-24T05:50:12;48.15;;;31.90;;
52898;SDS011;38763;53.096;6.062;2022-08-24T05:52:37;45.88;;;29.92;;
52898;SDS011;38763;53.096;6.062;2022-08-24T05:55:03;44.15;;;30.17;;
52898;SDS011;38763;53.096;6.062;2022-08-24T05:57:30;44.65;;;30.25;;
52898;SDS011;38763;53.096;6.062;2022-08-24T05:59:58;39.55;;;28.58;;
52898;SDS011;38763;53.096;6.062;2022-08-24T06:02:24;43.58;;;28.38;;
52898;SDS011;38763;53.096;6.062;2022-08-24T06:04:50;43.33;;;28.70;;
52898;SDS011;38763;53.096;6.062;2022-08-24T06:07:15;39.78;;;28.45;;
52898;SDS011;38763;53.096;6.062;2022-08-24T06:09:42;42.47;;;28.00;;
52898;SDS011;38763;53.096;6.062;2022-08-24T06:12:08;39.70;;;28.48;;
52898;SDS011;38763;53.096;6.062;2022-08-24T06:14:36;40.42;;;27.55;;
52898;SDS011;38763;53.096;6.062;2022-08-24T06:17:02;38.70;;;27.13;;
52898;SDS011;38763;53.096;6.062;2022-08-24T06:19:29;39.00;;;25.80;;
52898;SDS011;38763;53.096;6.062;2022-08-24T06:21:56;36.45;;;26.55;;
52898;SDS011;38763;53.096;6.062;2022-08-24T06:24:22;39.80;;;26.13;;
52898;SDS011;38763;53.096;6.062;2022-08-24T06:27:08;39.20;;;26.38;;
52898;SDS011;38763;53.096;6.062;2022-08-24T06:29:52;37.67;;;25.15;;
52898;SDS011;38763;53.096;6.062;2022-08-24T06:32:19;37.80;;;25.55;;
52898;SDS011;38763;53.096;6.062;2022-08-24T06:34:45;31.35;;;23.40;;
52898;SDS011;38763;53.096;6.062;2022-08-24T06:37:11;33.05;;;22.48;;
52898;SDS011;38763;53.096;6.062;2022-08-24T06:39:36;36.05;;;22.77;;
52898;SDS011;38763;53.096;6.062;2022-08-24T06:42:02;34.28;;;22.25;;
52898;SDS011;38763;53.096;6.062;2022-08-24T06:44:29;31.48;;;21.30;;
52898;SDS011;38763;53.096;6.062;2022-08-24T06:46:56;30.05;;;20.65;;
52898;SDS011;38763;53.096;6.062;2022-08-24T06:49:21;30.45;;;19.77;;
52898;SDS011;38763;53.096;6.062;2022-08-24T06:51:47;25.52;;;18.13;;
52898;SDS011;38763;53.096;6.062;2022-08-24T06:54:13;25.08;;;17.35;;
52898;SDS011;38763;53.096;6.062;2022-08-24T06:56:38;27.10;;;17.85;;
52898;SDS011;38763;53.096;6.062;2022-08-24T06:59:04;23.50;;;16.83;;
52898;SDS011;38763;53.096;6.062;2022-08-24T07:01:30;21.88;;;16.15;;
52898;SDS011;38763;53.096;6.062;2022-08-24T07:03:56;24.48;;;16.15;;
52898;SDS011;38763;53.096;6.062;2022-08-24T07:06:22;25.05;;;15.30;;
52898;SDS011;38763;53.096;6.062;2022-08-24T07:08:49;21.55;;;15.55;;
52898;SDS011;38763;53.096;6.062;2022-08-24T07:11:15;23.35;;;14.77;;
52898;SDS011;38763;53.096;6.062;2022-08-24T07:13:42;24.45;;;15.90;;
52898;SDS011;38763;53.096;6.062;2022-08-24T07:16:09;26.50;;;15.35;;
52898;SDS011;38763;53.096;6.062;2022-08-24T07:18:35;21.85;;;14.73;;
52898;SDS011;38763;53.096;6.062;2022-08-24T07:21:01;21.92;;;15.05;;
52898;SDS011;38763;53.096;6.062;2022-08-24T07:23:27;21.67;;;13.55;;
52898;SDS011;38763;53.096;6.062;2022-08-24T07:25:53;18.92;;;13.40;;
52898;SDS011;38763;53.096;6.062;2022-08-24T07:28:19;22.75;;;14.10;;
52898;SDS011;38763;53.096;6.062;2022-08-24T07:30:44;20.40;;;13.23;;
52898;SDS011;38763;53.096;6.062;2022-08-24T07:33:11;20.05;;;13.65;;
52898;SDS011;38763;53.096;6.062;2022-08-24T07:35:36;17.65;;;13.38;;
52898;SDS011;38763;53.096;6.062;2022-08-24T07:38:03;20.38;;;13.23;;
52898;SDS011;38763;53.096;6.062;2022-08-24T07:40:30;18.65;;;12.88;;
52898;SDS011;38763;53.096;6.062;2022-08-24T07:42:56;20.02;;;12.45;;
52898;SDS011;38763;53.096;6.062;2022-08-24T07:45:22;19.63;;;13.25;;
52898;SDS011;38763;53.096;6.062;2022-08-24T07:47:52;17.88;;;12.75;;
52898;SDS011;38763;53.096;6.062;2022-08-24T07:50:18;17.92;;;12.93;;
52898;SDS011;38763;53.096;6.062;2022-08-24T07:52:44;18.45;;;13.02;;
52898;SDS011;38763;53.096;6.062;2022-08-24T07:55:11;17.67;;;12.25;;
52898;SDS011;38763;53.096;6.062;2022-08-24T07:57:38;16.60;;;10.75;;
52898;SDS011;38763;53.096;6.062;2022-08-24T08:00:07;17.15;;;10.20;;
52898;SDS011;38763;53.096;6.062;2022-08-24T08:02:36;14.40;;;9.27;;
52898;SDS011;38763;53.096;6.062;2022-08-24T08:05:02;14.88;;;10.55;;
52898;SDS011;38763;53.096;6.062;2022-08-24T08:07:29;16.40;;;10.32;;
52898;SDS011;38763;53.096;6.062;2022-08-24T08:09:55;14.68;;;9.13;;
52898;SDS011;38763;53.096;6.062;2022-08-24T08:12:20;12.18;;;8.88;;
52898;SDS011;38763;53.096;6.062;2022-08-24T08:14:46;15.20;;;8.00;;
52898;SDS011;38763;53.096;6.062;2022-08-24T08:17:12;10.25;;;6.65;;
52898;SDS011;38763;53.096;6.062;2022-08-24T08:19:39;9.25;;;5.88;;
52898;SDS011;38763;53.096;6.062;2022-08-24T08:22:05;8.60;;;4.72;;
52898;SDS011;38763;53.096;6.062;2022-08-24T08:24:49;7.57;;;4.45;;
52898;SDS011;38763;53.096;6.062;2022-08-24T08:27:15;8.32;;;4.90;;
52898;SDS011;38763;53.096;6.062;2022-08-24T08:29:42;8.68;;;5.10;;
52898;SDS011;38763;53.096;6.062;2022-08-24T08:32:08;9.77;;;4.68;;
52898;SDS011;38763;53.096;6.062;2022-08-24T08:34:38;9.82;;;5.03;;
52898;SDS011;38763;53.096;6.062;2022-08-24T08:37:04;8.95;;;5.28;;
52898;SDS011;38763;53.096;6.062;2022-08-24T08:39:30;10.18;;;5.80;;
52898;SDS011;38763;53.096;6.062;2022-08-24T08:47:21;8.45;;;6.25;;
52898;SDS011;38763;53.096;6.062;2022-08-24T08:53:08;8.82;;;5.85;;
52898;SDS011;38763;53.096;6.062;2022-08-24T08:58:48;12.00;;;7.43;;
52898;SDS011;38763;53.096;6.062;2022-08-24T09:15:33;8.77;;;5.80;;
52898;SDS011;38763;53.096;6.062;2022-08-24T09:18:22;9.57;;;5.57;;
52898;SDS011;38763;53.096;6.062;2022-08-24T09:21:14;8.23;;;5.20;;
52898;SDS011;38763;53.096;6.062;2022-08-24T09:26:57;9.93;;;5.00;;
52898;SDS011;38763;53.096;6.062;2022-08-24T09:29:46;7.57;;;4.40;;
52898;SDS011;38763;53.096;6.062;2022-08-24T09:32:24;9.48;;;4.80;;
52898;SDS011;38763;53.096;6.062;2022-08-24T09:35:04;7.80;;;5.22;;
52898;SDS011;38763;53.096;6.062;2022-08-24T09:37:43;9.32;;;5.00;;
52898;SDS011;38763;53.096;6.062;2022-08-24T09:40:34;7.10;;;4.47;;
52898;SDS011;38763;53.096;6.062;2022-08-24T09:51:44;7.28;;;3.17;;
52898;SDS011;38763;53.096;6.062;2022-08-24T10:00:20;7.85;;;2.95;;
52898;SDS011;38763;53.096;6.062;2022-08-24T10:03:05;5.70;;;3.33;;
52898;SDS011;38763;53.096;6.062;2022-08-24T10:20:13;6.85;;;2.58;;
52898;SDS011;38763;53.096;6.062;2022-08-24T10:25:27;4.90;;;1.83;;
52898;SDS011;38763;53.096;6.062;2022-08-24T10:33:24;6.60;;;2.60;;
52898;SDS011;38763;53.096;6.062;2022-08-24T10:44:04;6.72;;;2.30;;
52898;SDS011;38763;53.096;6.062;2022-08-24T10:47:10;4.40;;;2.08;;
52898;SDS011;38763;53.096;6.062;2022-08-24T10:54:43;6.03;;;2.70;;
52898;SDS011;38763;53.096;6.062;2022-08-24T11:00:05;8.02;;;2.10;;
52898;SDS011;38763;53.096;6.062;2022-08-24T11:02:40;7.60;;;3.47;;
52898;SDS011;38763;53.096;6.062;2022-08-24T11:05:12;6.45;;;3.25;;
52898;SDS011;38763;53.096;6.062;2022-08-24T11:07:57;5.40;;;2.30;;
52898;SDS011;38763;53.096;6.062;2022-08-24T11:10:30;4.90;;;2.42;;
52898;SDS011;38763;53.096;6.062;2022-08-24T11:16:04;5.03;;;3.00;;
52898;SDS011;38763;53.096;6.062;2022-08-24T11:18:47;6.95;;;2.80;;
52898;SDS011;38763;53.096;6.062;2022-08-24T11:21:31;7.25;;;3.20;;
52898;SDS011;38763;53.096;6.062;2022-08-24T11:24:04;6.30;;;3.42;;
52898;SDS011;38763;53.096;6.062;2022-08-24T11:26:54;6.60;;;3.08;;
52898;SDS011;38763;53.096;6.062;2022-08-24T11:29:21;4.90;;;2.80;;
52898;SDS011;38763;53.096;6.062;2022-08-24T11:31:51;5.50;;;2.30;;
52898;SDS011;38763;53.096;6.062;2022-08-24T11:34:36;6.93;;;2.33;;
52898;SDS011;38763;53.096;6.062;2022-08-24T11:37:03;6.32;;;2.78;;
52898;SDS011;38763;53.096;6.062;2022-08-24T11:39:35;5.95;;;3.22;;
52898;SDS011;38763;53.096;6.062;2022-08-24T11:45:09;5.05;;;2.40;;
52898;SDS011;38763;53.096;6.062;2022-08-24T11:48:14;5.33;;;2.50;;
52898;SDS011;38763;53.096;6.062;2022-08-24T11:51:09;5.95;;;2.90;;
52898;SDS011;38763;53.096;6.062;2022-08-24T11:56:30;5.60;;;2.75;;
52898;SDS011;38763;53.096;6.062;2022-08-24T12:01:52;4.97;;;2.78;;
52898;SDS011;38763;53.096;6.062;2022-08-24T12:04:27;5.07;;;2.80;;
52898;SDS011;38763;53.096;6.062;2022-08-24T12:07:44;8.95;;;2.50;;
52898;SDS011;38763;53.096;6.062;2022-08-24T12:15:45;3.55;;;1.67;;
52898;SDS011;38763;53.096;6.062;2022-08-24T12:21:20;4.32;;;1.60;;
52898;SDS011;38763;53.096;6.062;2022-08-24T12:24:02;3.10;;;1.70;;
52898;SDS011;38763;53.096;6.062;2022-08-24T12:26:50;4.93;;;1.10;;
52898;SDS011;38763;53.096;6.062;2022-08-24T12:32:44;3.60;;;1.50;;
52898;SDS011;38763;53.096;6.062;2022-08-24T12:35:23;6.45;;;1.50;;
52898;SDS011;38763;53.096;6.062;2022-08-24T12:38:11;3.35;;;1.23;;
52898;SDS011;38763;53.096;6.062;2022-08-24T12:43:30;4.68;;;1.20;;
52898;SDS011;38763;53.096;6.062;2022-08-24T12:46:03;1.88;;;0.90;;
52898;SDS011;38763;53.096;6.062;2022-08-24T12:48:34;2.15;;;1.00;;
52898;SDS011;38763;53.096;6.062;2022-08-24T13:02:06;2.80;;;0.93;;
52898;SDS011;38763;53.096;6.062;2022-08-24T13:31:02;2.17;;;1.10;;
52898;SDS011;38763;53.096;6.062;2022-08-24T13:39:17;2.85;;;1.15;;
52898;SDS011;38763;53.096;6.062;2022-08-24T13:47:21;2.42;;;1.00;;
52898;SDS011;38763;53.096;6.062;2022-08-24T14:06:39;1.90;;;0.90;;
52898;SDS011;38763;53.096;6.062;2022-08-24T14:12:22;4.57;;;1.10;;
52898;SDS011;38763;53.096;6.062;2022-08-24T14:15:00;1.85;;;1.00;;
52898;SDS011;38763;53.096;6.062;2022-08-24T14:17:42;2.75;;;1.00;;
52898;SDS011;38763;53.096;6.062;2022-08-24T14:23:27;4.50;;;1.00;;
52898;SDS011;38763;53.096;6.062;2022-08-24T14:34:41;1.40;;;1.00;;
52898;SDS011;38763;53.096;6.062;2022-08-24T14:37:44;5.30;;;1.50;;
52898;SDS011;38763;53.096;6.062;2022-08-24T14:40:26;1.42;;;0.80;;
52898;SDS011;38763;53.096;6.062;2022-08-24T14:43:17;3.30;;;1.10;;
52898;SDS011;38763;53.096;6.062;2022-08-24T14:46:07;1.58;;;1.10;;
52898;SDS011;38763;53.096;6.062;2022-08-24T14:51:54;2.45;;;1.00;;
52898;SDS011;38763;53.096;6.062;2022-08-24T15:00:17;1.42;;;1.00;;
52898;SDS011;38763;53.096;6.062;2022-08-24T15:08:08;4.30;;;1.10;;
52898;SDS011;38763;53.096;6.062;2022-08-24T15:10:42;1.70;;;1.00;;
52898;SDS011;38763;53.096;6.062;2022-08-24T15:16:04;2.67;;;0.98;;
52898;SDS011;38763;53.096;6.062;2022-08-24T15:18:50;4.88;;;1.00;;
52898;SDS011;38763;53.096;6.062;2022-08-24T15:24:46;7.78;;;2.15;;
52898;SDS011;38763;53.096;6.062;2022-08-24T15:30:38;4.85;;;2.58;;
52898;SDS011;38763;53.096;6.062;2022-08-24T15:33:09;7.03;;;2.28;;
52898;SDS011;38763;53.096;6.062;2022-08-24T15:35:44;5.25;;;2.40;;
52898;SDS011;38763;53.096;6.062;2022-08-24T15:38:23;4.45;;;2.13;;
52898;SDS011;38763;53.096;6.062;2022-08-24T15:41:11;7.15;;;2.40;;
52898;SDS011;38763;53.096;6.062;2022-08-24T15:46:22;4.28;;;1.90;;
52898;SDS011;38763;53.096;6.062;2022-08-24T15:49:44;4.32;;;1.90;;
52898;SDS011;38763;53.096;6.062;2022-08-24T15:54:34;8.00;;;2.53;;
52898;SDS011;38763;53.096;6.062;2022-08-24T15:57:09;5.10;;;2.40;;
52898;SDS011;38763;53.096;6.062;2022-08-24T16:12:55;5.20;;;2.47;;
52898;SDS011;38763;53.096;6.062;2022-08-24T16:15:43;3.20;;;2.05;;
52898;SDS011;38763;53.096;6.062;2022-08-24T16:21:37;4.97;;;2.42;;
52898;SDS011;38763;53.096;6.062;2022-08-24T16:24:27;6.20;;;2.72;;
52898;SDS011;38763;53.096;6.062;2022-08-24T16:32:24;7.63;;;3.00;;
52898;SDS011;38763;53.096;6.062;2022-08-24T16:34:53;8.93;;;3.30;;
52898;SDS011;38763;53.096;6.062;2022-08-24T16:37:37;10.60;;;3.50;;
52898;SDS011;38763;53.096;6.062;2022-08-24T16:40:03;6.82;;;3.28;;
52898;SDS011;38763;53.096;6.062;2022-08-24T16:42:30;7.72;;;4.35;;
52898;SDS011;38763;53.096;6.062;2022-08-24T16:44:56;7.05;;;3.80;;
52898;SDS011;38763;53.096;6.062;2022-08-24T16:47:23;7.95;;;4.20;;
52898;SDS011;38763;53.096;6.062;2022-08-24T16:49:49;10.13;;;3.92;;
52898;SDS011;38763;53.096;6.062;2022-08-24T16:52:15;8.23;;;4.50;;
52898;SDS011;38763;53.096;6.062;2022-08-24T16:54:42;8.20;;;5.82;;
52898;SDS011;38763;53.096;6.062;2022-08-24T16:57:12;11.38;;;5.78;;
52898;SDS011;38763;53.096;6.062;2022-08-24T16:59:43;11.43;;;6.32;;
52898;SDS011;38763;53.096;6.062;2022-08-24T17:02:12;11.02;;;5.30;;
52898;SDS011;38763;53.096;6.062;2022-08-24T17:04:39;9.10;;;5.53;;
52898;SDS011;38763;53.096;6.062;2022-08-24T17:07:07;8.27;;;5.50;;
52898;SDS011;38763;53.096;6.062;2022-08-24T17:09:38;11.48;;;6.40;;
52898;SDS011;38763;53.096;6.062;2022-08-24T17:12:06;7.03;;;4.85;;
52898;SDS011;38763;53.096;6.062;2022-08-24T17:14:35;10.30;;;5.68;;
52898;SDS011;38763;53.096;6.062;2022-08-24T17:17:03;7.03;;;4.78;;
52898;SDS011;38763;53.096;6.062;2022-08-24T17:19:30;8.57;;;4.47;;
52898;SDS011;38763;53.096;6.062;2022-08-24T17:21:57;8.35;;;5.10;;
52898;SDS011;38763;53.096;6.062;2022-08-24T17:24:23;6.57;;;4.40;;
52898;SDS011;38763;53.096;6.062;2022-08-24T17:26:49;7.53;;;4.00;;
52898;SDS011;38763;53.096;6.062;2022-08-24T17:29:16;7.93;;;4.30;;
52898;SDS011;38763;53.096;6.062;2022-08-24T17:31:44;6.50;;;4.13;;
52898;SDS011;38763;53.096;6.062;2022-08-24T17:34:10;7.93;;;4.05;;
52898;SDS011;38763;53.096;6.062;2022-08-24T17:36:36;7.60;;;3.85;;
52898;SDS011;38763;53.096;6.062;2022-08-24T17:39:04;6.40;;;3.67;;
52898;SDS011;38763;53.096;6.062;2022-08-24T17:41:31;9.10;;;3.47;;
52898;SDS011;38763;53.096;6.062;2022-08-24T17:43:57;9.15;;;4.43;;
52898;SDS011;38763;53.096;6.062;2022-08-24T17:46:25;7.00;;;4.13;;
52898;SDS011;38763;53.096;6.062;2022-08-24T17:48:51;7.38;;;3.55;;
52898;SDS011;38763;53.096;6.062;2022-08-24T17:51:16;10.63;;;3.85;;
52898;SDS011;38763;53.096;6.062;2022-08-24T17:53:42;5.82;;;4.18;;
52898;SDS011;38763;53.096;6.062;2022-08-24T17:56:08;8.18;;;4.82;;
52898;SDS011;38763;53.096;6.062;2022-08-24T17:58:37;8.40;;;4.40;;
52898;SDS011;38763;53.096;6.062;2022-08-24T18:01:23;9.27;;;5.15;;
52898;SDS011;38763;53.096;6.062;2022-08-24T18:03:49;8.77;;;4.78;;
52898;SDS011;38763;53.096;6.062;2022-08-24T18:06:16;9.45;;;4.78;;
52898;SDS011;38763;53.096;6.062;2022-08-24T18:08:43;10.27;;;4.95;;
52898;SDS011;38763;53.096;6.062;2022-08-24T18:11:11;7.13;;;5.03;;
52898;SDS011;38763;53.096;6.062;2022-08-24T18:13:36;7.95;;;4.60;;
52898;SDS011;38763;53.096;6.062;2022-08-24T18:16:02;10.73;;;5.15;;
52898;SDS011;38763;53.096;6.062;2022-08-24T18:18:28;7.07;;;4.30;;
52898;SDS011;38763;53.096;6.062;2022-08-24T18:20:54;9.35;;;5.20;;
52898;SDS011;38763;53.096;6.062;2022-08-24T18:23:20;9.85;;;6.40;;
52898;SDS011;38763;53.096;6.062;2022-08-24T18:25:46;8.52;;;5.70;;
52898;SDS011;38763;53.096;6.062;2022-08-24T18:28:13;10.93;;;5.60;;
52898;SDS011;38763;53.096;6.062;2022-08-24T18:30:40;8.27;;;5.28;;
52898;SDS011;38763;53.096;6.062;2022-08-24T18:33:07;10.10;;;6.18;;
52898;SDS011;38763;53.096;6.062;2022-08-24T18:35:32;8.63;;;5.80;;
52898;SDS011;38763;53.096;6.062;2022-08-24T18:37:58;9.38;;;5.65;;
52898;SDS011;38763;53.096;6.062;2022-08-24T18:40:24;10.73;;;6.25;;
52898;SDS011;38763;53.096;6.062;2022-08-24T18:42:52;10.02;;;5.90;;
52898;SDS011;38763;53.096;6.062;2022-08-24T18:45:19;8.98;;;5.78;;
52898;SDS011;38763;53.096;6.062;2022-08-24T18:47:44;8.57;;;5.57;;
52898;SDS011;38763;53.096;6.062;2022-08-24T18:50:10;7.25;;;5.18;;
52898;SDS011;38763;53.096;6.062;2022-08-24T18:52:36;14.27;;;6.03;;
52898;SDS011;38763;53.096;6.062;2022-08-24T18:55:04;9.45;;;5.40;;